createdAt,value
2016-12-18T00:00:31.505Z,22.73
2016-12-18T00:01:34.961Z,22.66
2016-12-18T00:02:38.414Z,22.66
2016-12-18T00:03:41.867Z,22.65
2016-12-18T00:04:45.322Z,22.66
2016-12-18T00:05:48.776Z,22.6
2016-12-18T00:06:52.230Z,22.69
2016-12-18T00:07:55.690Z,22.65
2016-12-18T00:08:59.138Z,22.66
2016-12-18T00:10:02.591Z,22.68
2016-12-18T00:11:06.051Z,22.62
2016-12-18T00:12:09.515Z,22.6
2016-12-18T00:13:12.953Z,22.68
2016-12-18T00:14:16.413Z,22.63
2016-12-18T00:15:19.861Z,22.7
2016-12-18T00:16:23.314Z,22.66
2016-12-18T00:17:26.772Z,22.66
2016-12-18T00:18:30.223Z,22.7
2016-12-18T00:19:33.676Z,22.7
2016-12-18T00:20:37.133Z,22.65
2016-12-18T00:21:40.585Z,22.68
2016-12-18T00:22:44.038Z,22.65
2016-12-18T00:23:47.495Z,22.55
2016-12-18T00:24:50.946Z,22.6
2016-12-18T00:25:54.400Z,22.59
2016-12-18T00:26:57.859Z,22.69
2016-12-18T00:28:01.309Z,22.63
2016-12-18T00:29:04.761Z,22.63
2016-12-18T00:30:08.215Z,22.62
2016-12-18T00:31:11.670Z,22.6
2016-12-18T00:32:15.122Z,22.68
2016-12-18T00:33:18.582Z,22.57
2016-12-18T00:34:22.031Z,22.62
2016-12-18T00:35:25.486Z,22.6
2016-12-18T00:36:28.941Z,22.72
2016-12-18T00:37:32.393Z,22.65
2016-12-18T00:38:35.844Z,22.7
2016-12-18T00:39:39.302Z,22.65
2016-12-18T00:40:42.754Z,22.59
2016-12-18T00:41:46.209Z,22.62
2016-12-18T00:42:49.667Z,22.65
2016-12-18T00:43:53.117Z,22.62
2016-12-18T00:44:56.570Z,22.68
2016-12-18T00:46:00.027Z,22.72
2016-12-18T00:47:03.478Z,22.63
2016-12-18T00:48:06.932Z,22.57
2016-12-18T00:49:10.387Z,22.65
2016-12-18T00:50:13.839Z,22.6
2016-12-18T00:51:17.292Z,22.6
2016-12-18T00:52:20.753Z,22.66
2016-12-18T00:53:24.201Z,22.65
2016-12-18T00:54:27.658Z,22.62
2016-12-18T00:55:31.108Z,22.69
2016-12-18T00:56:34.563Z,22.65
2016-12-18T00:57:38.017Z,22.63
2016-12-18T00:58:41.471Z,22.68
2016-12-18T00:59:44.924Z,22.62
2016-12-18T01:00:49.111Z,22.57
2016-12-18T01:02:16.627Z,22.62
2016-12-18T01:03:20.068Z,22.69
2016-12-18T01:04:23.520Z,22.66
2016-12-18T01:05:26.974Z,22.7
2016-12-18T01:06:30.430Z,22.68
2016-12-18T01:07:33.882Z,22.62
2016-12-18T01:08:37.336Z,22.69
2016-12-18T01:09:40.790Z,22.6
2016-12-18T01:10:44.244Z,22.57
2016-12-18T01:11:47.693Z,22.6
2016-12-18T01:12:51.122Z,22.62
2016-12-18T01:13:54.580Z,22.66
2016-12-18T01:14:58.025Z,22.68
2016-12-18T01:16:01.472Z,22.62
2016-12-18T01:17:04.921Z,22.66
2016-12-18T01:18:08.363Z,22.7
2016-12-18T01:19:11.817Z,22.68
2016-12-18T01:20:15.262Z,22.62
2016-12-18T01:21:18.715Z,22.57
2016-12-18T01:22:22.169Z,22.65
2016-12-18T01:23:25.628Z,22.62
2016-12-18T01:24:29.077Z,22.66
2016-12-18T01:25:32.532Z,22.6
2016-12-18T01:26:35.984Z,22.65
2016-12-18T01:27:39.438Z,22.6
2016-12-18T01:28:42.892Z,22.75
2016-12-18T01:29:46.346Z,22.68
2016-12-18T01:30:49.800Z,22.65
2016-12-18T01:31:53.255Z,22.63
2016-12-18T01:32:56.708Z,22.57
2016-12-18T01:34:00.161Z,22.7
2016-12-18T01:35:03.618Z,22.6
2016-12-18T01:36:07.070Z,22.6
2016-12-18T01:37:10.523Z,22.72
2016-12-18T01:38:13.976Z,22.62
2016-12-18T01:39:17.431Z,22.65
2016-12-18T01:40:20.877Z,22.7
2016-12-18T01:41:24.327Z,22.63
2016-12-18T01:42:27.770Z,22.66
2016-12-18T01:43:31.222Z,22.63
2016-12-18T01:44:34.666Z,22.6
2016-12-18T01:45:38.120Z,22.65
2016-12-18T01:46:41.574Z,22.65
2016-12-18T01:47:45.029Z,22.63
2016-12-18T01:48:48.484Z,22.63
2016-12-18T01:49:51.937Z,22.68
2016-12-18T01:50:55.391Z,22.62
2016-12-18T01:51:58.843Z,22.62
2016-12-18T01:53:02.299Z,22.62
2016-12-18T01:54:05.752Z,22.65
2016-12-18T01:55:09.205Z,22.63
2016-12-18T01:56:12.664Z,22.62
2016-12-18T01:57:16.114Z,22.6
2016-12-18T01:58:19.567Z,22.59
2016-12-18T01:59:23.023Z,22.63
2016-12-18T02:00:26.476Z,22.65
2016-12-18T02:01:29.929Z,22.63
2016-12-18T02:02:33.383Z,22.66
2016-12-18T02:03:36.837Z,22.69
2016-12-18T02:04:40.284Z,22.68
2016-12-18T02:05:43.732Z,22.66
2016-12-18T02:06:47.175Z,22.66
2016-12-18T02:07:50.631Z,22.59
2016-12-18T02:08:54.073Z,22.59
2016-12-18T02:09:57.526Z,22.65
2016-12-18T02:11:00.979Z,22.68
2016-12-18T02:12:04.435Z,22.62
2016-12-18T02:13:07.886Z,22.62
2016-12-18T02:14:11.343Z,22.6
2016-12-18T02:15:14.796Z,22.69
2016-12-18T02:16:18.249Z,22.69
2016-12-18T02:17:21.704Z,22.59
2016-12-18T02:18:25.157Z,22.63
2016-12-18T02:19:28.611Z,22.7
2016-12-18T02:20:32.063Z,22.66
2016-12-18T02:21:35.519Z,22.63
2016-12-18T02:22:38.973Z,22.66
2016-12-18T02:23:42.430Z,22.6
2016-12-18T02:24:45.881Z,22.68
2016-12-18T02:25:49.334Z,22.66
2016-12-18T02:26:52.788Z,22.63
2016-12-18T02:27:56.242Z,22.73
2016-12-18T02:28:59.696Z,22.68
2016-12-18T02:30:03.150Z,22.6
2016-12-18T02:31:06.604Z,22.69
2016-12-18T02:32:10.057Z,22.62
2016-12-18T02:33:13.511Z,22.68
2016-12-18T02:34:16.968Z,22.65
2016-12-18T02:35:20.420Z,22.72
2016-12-18T02:36:23.862Z,22.63
2016-12-18T02:37:27.305Z,22.63
2016-12-18T02:38:30.759Z,22.66
2016-12-18T02:39:34.202Z,22.63
2016-12-18T02:40:37.654Z,22.69
2016-12-18T02:41:41.111Z,22.62
2016-12-18T02:42:44.563Z,22.68
2016-12-18T02:43:48.016Z,22.65
2016-12-18T02:44:51.474Z,22.68
2016-12-18T02:45:54.925Z,22.66
2016-12-18T02:46:58.377Z,22.72
2016-12-18T02:48:01.833Z,22.69
2016-12-18T02:49:05.286Z,22.69
2016-12-18T02:50:08.744Z,22.6
2016-12-18T02:51:12.194Z,22.65
2016-12-18T02:52:15.648Z,22.66
2016-12-18T02:53:19.094Z,22.63
2016-12-18T02:54:22.543Z,22.62
2016-12-18T02:55:25.987Z,22.65
2016-12-18T02:56:29.438Z,22.65
2016-12-18T02:57:32.883Z,22.63
2016-12-18T02:58:36.340Z,22.69
2016-12-18T02:59:39.791Z,22.63
2016-12-18T03:00:43.245Z,22.68
2016-12-18T03:01:46.696Z,22.62
2016-12-18T03:02:50.153Z,22.59
2016-12-18T03:03:53.607Z,22.68
2016-12-18T03:04:57.060Z,22.6
2016-12-18T03:06:00.514Z,22.66
2016-12-18T03:07:03.968Z,22.59
2016-12-18T03:08:07.421Z,22.6
2016-12-18T03:09:10.877Z,22.66
2016-12-18T03:10:14.330Z,22.59
2016-12-18T03:11:17.784Z,22.65
2016-12-18T03:12:21.239Z,22.75
2016-12-18T03:13:24.691Z,22.63
2016-12-18T03:14:28.139Z,22.72
2016-12-18T03:15:31.587Z,22.63
2016-12-18T03:16:35.030Z,22.59
2016-12-18T03:17:38.488Z,22.66
2016-12-18T03:18:41.929Z,22.62
2016-12-18T03:19:45.386Z,22.59
2016-12-18T03:20:48.847Z,22.65
2016-12-18T03:21:52.290Z,22.66
2016-12-18T03:22:55.743Z,22.59
2016-12-18T03:23:59.197Z,22.62
2016-12-18T03:25:02.651Z,22.63
2016-12-18T03:26:06.104Z,22.62
2016-12-18T03:27:09.557Z,22.63
2016-12-18T03:28:13.013Z,22.66
2016-12-18T03:29:16.466Z,22.6
2016-12-18T03:30:19.922Z,22.63
2016-12-18T03:31:23.375Z,22.59
2016-12-18T03:32:26.829Z,22.68
2016-12-18T03:33:30.286Z,22.68
2016-12-18T03:34:33.737Z,22.69
2016-12-18T03:35:37.189Z,22.65
2016-12-18T03:36:40.647Z,22.66
2016-12-18T03:37:44.098Z,22.66
2016-12-18T03:38:47.552Z,22.63
2016-12-18T03:39:51.010Z,22.63
2016-12-18T03:40:54.460Z,22.59
2016-12-18T03:41:57.914Z,22.7
2016-12-18T03:43:01.368Z,22.66
2016-12-18T03:44:04.822Z,22.66
2016-12-18T03:45:08.274Z,22.65
2016-12-18T03:46:11.730Z,22.65
2016-12-18T03:47:15.183Z,22.65
2016-12-18T03:48:18.628Z,22.68
2016-12-18T03:49:22.080Z,22.73
2016-12-18T03:50:25.536Z,22.65
2016-12-18T03:51:28.992Z,22.6
2016-12-18T03:52:32.439Z,22.66
2016-12-18T03:53:35.883Z,22.6
2016-12-18T03:54:39.342Z,22.65
2016-12-18T03:55:42.797Z,22.63
2016-12-18T03:56:46.240Z,22.7
2016-12-18T03:57:49.699Z,22.65
2016-12-18T03:58:53.142Z,22.62
2016-12-18T03:59:56.601Z,22.6
2016-12-18T04:01:00.060Z,22.63
2016-12-18T04:02:03.503Z,22.69
2016-12-18T04:03:06.963Z,22.76
2016-12-18T04:04:10.420Z,22.68
2016-12-18T04:05:13.866Z,22.57
2016-12-18T04:06:17.324Z,22.55
2016-12-18T04:07:20.781Z,22.65
2016-12-18T04:08:24.227Z,22.57
2016-12-18T04:09:27.679Z,22.72
2016-12-18T04:10:31.133Z,22.76
2016-12-18T04:11:34.588Z,22.65
2016-12-18T04:12:38.040Z,22.73
2016-12-18T04:13:41.499Z,22.59
2016-12-18T04:14:44.949Z,22.62
2016-12-18T04:15:48.402Z,22.66
2016-12-18T04:16:51.860Z,22.65
2016-12-18T04:17:55.310Z,22.62
2016-12-18T04:18:58.764Z,22.63
2016-12-18T04:20:02.218Z,22.62
2016-12-18T04:21:05.672Z,22.6
2016-12-18T04:22:09.125Z,22.66
2016-12-18T04:23:12.580Z,22.63
2016-12-18T04:24:16.034Z,22.62
2016-12-18T04:25:19.488Z,22.7
2016-12-18T04:26:22.946Z,22.6
2016-12-18T04:27:26.395Z,22.68
2016-12-18T04:28:29.849Z,22.66
2016-12-18T04:29:33.309Z,22.66
2016-12-18T04:30:36.757Z,22.68
2016-12-18T04:31:40.210Z,22.62
2016-12-18T04:32:43.666Z,22.59
2016-12-18T04:33:47.119Z,22.68
2016-12-18T04:34:50.571Z,22.62
2016-12-18T04:35:54.026Z,22.65
2016-12-18T04:36:57.482Z,22.65
2016-12-18T04:38:00.934Z,22.59
2016-12-18T04:39:04.394Z,22.7
2016-12-18T04:40:07.842Z,22.63
2016-12-18T04:41:11.296Z,22.59
2016-12-18T04:42:14.761Z,22.63
2016-12-18T04:43:18.205Z,22.6
2016-12-18T04:44:21.663Z,22.62
2016-12-18T04:45:25.126Z,22.59
2016-12-18T04:46:28.567Z,22.59
2016-12-18T04:47:32.025Z,22.63
2016-12-18T04:48:35.486Z,22.55
2016-12-18T04:49:38.930Z,22.63
2016-12-18T04:50:42.387Z,22.66
2016-12-18T04:51:45.849Z,22.6
2016-12-18T04:52:49.294Z,22.62
2016-12-18T04:53:52.747Z,22.69
2016-12-18T04:54:56.205Z,22.66
2016-12-18T04:55:59.650Z,22.63
2016-12-18T04:57:03.104Z,22.65
2016-12-18T04:58:06.560Z,22.62
2016-12-18T04:59:10.013Z,22.65
2016-12-18T05:00:13.466Z,22.65
2016-12-18T05:01:16.926Z,22.65
2016-12-18T05:02:20.375Z,22.59
2016-12-18T05:03:23.829Z,22.65
2016-12-18T05:04:27.287Z,22.63
2016-12-18T05:05:30.736Z,22.66
2016-12-18T05:06:34.189Z,22.63
2016-12-18T05:07:37.645Z,22.66
2016-12-18T05:08:41.097Z,22.59
2016-12-18T05:09:44.551Z,22.65
2016-12-18T05:10:48.008Z,22.69
2016-12-18T05:11:51.459Z,22.63
2016-12-18T05:12:54.913Z,22.66
2016-12-18T05:13:58.368Z,22.62
2016-12-18T05:15:01.822Z,22.63
2016-12-18T05:16:05.275Z,22.63
2016-12-18T05:17:08.730Z,22.68
2016-12-18T05:18:12.183Z,22.66
2016-12-18T05:19:15.637Z,22.59
2016-12-18T05:20:19.095Z,22.66
2016-12-18T05:21:22.544Z,22.62
2016-12-18T05:22:25.998Z,22.62
2016-12-18T05:23:29.458Z,22.65
2016-12-18T05:24:32.906Z,22.68
2016-12-18T05:25:36.360Z,22.62
2016-12-18T05:26:39.815Z,22.66
2016-12-18T05:27:43.268Z,22.68
2016-12-18T05:28:46.722Z,22.62
2016-12-18T05:29:50.177Z,22.65
2016-12-18T05:30:53.631Z,22.59
2016-12-18T05:31:57.083Z,22.6
2016-12-18T05:33:00.544Z,22.73
2016-12-18T05:34:03.993Z,22.66
2016-12-18T05:35:07.445Z,22.65
2016-12-18T05:36:10.901Z,22.59
2016-12-18T05:37:14.354Z,22.63
2016-12-18T05:38:17.808Z,22.63
2016-12-18T05:39:21.262Z,22.63
2016-12-18T05:40:24.716Z,22.66
2016-12-18T05:41:28.169Z,22.72
2016-12-18T05:42:31.626Z,22.68
2016-12-18T05:43:35.077Z,22.69
2016-12-18T05:44:38.530Z,22.57
2016-12-18T05:45:41.986Z,22.65
2016-12-18T05:46:45.439Z,22.66
2016-12-18T05:47:48.898Z,22.63
2016-12-18T05:48:52.354Z,22.65
2016-12-18T05:49:55.801Z,22.63
2016-12-18T05:50:59.262Z,22.63
2016-12-18T05:52:02.709Z,22.63
2016-12-18T05:53:06.162Z,22.62
2016-12-18T05:54:09.616Z,22.66
2016-12-18T05:55:13.071Z,22.63
2016-12-18T05:56:17.493Z,22.76
2016-12-18T05:57:44.782Z,22.65
2016-12-18T05:58:48.229Z,22.68
2016-12-18T05:59:51.673Z,22.65
2016-12-18T06:00:55.126Z,22.69
2016-12-18T06:01:58.582Z,22.65
2016-12-18T06:03:02.029Z,22.72
2016-12-18T06:04:05.476Z,22.68
2016-12-18T06:05:08.923Z,22.72
2016-12-18T06:06:12.359Z,22.63
2016-12-18T06:07:15.818Z,22.68
2016-12-18T06:08:19.264Z,22.62
2016-12-18T06:09:22.717Z,22.65
2016-12-18T06:10:26.171Z,22.62
2016-12-18T06:11:29.625Z,22.65
2016-12-18T06:12:33.062Z,22.65
2016-12-18T06:13:36.507Z,22.65
2016-12-18T06:14:39.959Z,22.72
2016-12-18T06:15:43.419Z,22.66
2016-12-18T06:16:46.861Z,22.59
2016-12-18T06:17:50.315Z,22.68
2016-12-18T06:18:53.769Z,22.68
2016-12-18T06:19:57.224Z,22.63
2016-12-18T06:21:00.674Z,22.65
2016-12-18T06:22:04.131Z,22.59
2016-12-18T06:23:07.584Z,22.62
2016-12-18T06:24:11.036Z,22.65
2016-12-18T06:25:14.492Z,22.6
2016-12-18T06:26:17.946Z,22.72
2016-12-18T06:27:21.392Z,22.59
2016-12-18T06:28:24.843Z,22.62
2016-12-18T06:29:28.285Z,22.6
2016-12-18T06:30:31.738Z,22.63
2016-12-18T06:31:35.182Z,22.68
2016-12-18T06:32:38.635Z,22.63
2016-12-18T06:33:42.089Z,22.65
2016-12-18T06:34:45.542Z,22.66
2016-12-18T06:35:48.996Z,22.55
2016-12-18T06:36:52.450Z,22.68
2016-12-18T06:37:55.904Z,22.6
2016-12-18T06:38:59.357Z,22.62
2016-12-18T06:40:02.811Z,22.68
2016-12-18T06:41:06.266Z,22.59
2016-12-18T06:42:09.719Z,22.65
2016-12-18T06:43:13.174Z,22.6
2016-12-18T06:44:16.627Z,22.62
2016-12-18T06:45:20.080Z,22.66
2016-12-18T06:46:23.535Z,22.66
2016-12-18T06:47:26.989Z,22.63
2016-12-18T06:48:30.442Z,22.6
2016-12-18T06:49:33.897Z,22.65
2016-12-18T06:50:37.350Z,22.59
2016-12-18T06:51:40.813Z,22.62
2016-12-18T06:52:44.268Z,22.57
2016-12-18T06:53:47.712Z,22.65
2016-12-18T06:54:51.165Z,22.59
2016-12-18T06:55:54.624Z,22.63
2016-12-18T06:56:58.074Z,22.59
2016-12-18T06:58:01.526Z,22.62
2016-12-18T06:59:04.982Z,22.62
2016-12-18T07:00:08.435Z,22.6
2016-12-18T07:01:11.889Z,22.57
2016-12-18T07:02:15.345Z,22.63
2016-12-18T07:03:19.769Z,22.63
2016-12-18T07:04:23.223Z,22.65
2016-12-18T07:05:26.665Z,22.6
2016-12-18T07:06:30.125Z,22.62
2016-12-18T07:07:33.571Z,22.66
2016-12-18T07:08:37.028Z,22.63
2016-12-18T07:09:40.486Z,22.5
2016-12-18T07:10:43.931Z,22.6
2016-12-18T07:11:47.384Z,22.66
2016-12-18T07:12:50.837Z,22.59
2016-12-18T07:13:54.293Z,22.55
2016-12-18T07:14:57.739Z,22.57
2016-12-18T07:16:01.193Z,22.62
2016-12-18T07:17:04.653Z,22.57
2016-12-18T07:18:08.107Z,22.68
2016-12-18T07:19:11.560Z,22.62
2016-12-18T07:20:15.015Z,22.59
2016-12-18T07:21:18.468Z,22.59
2016-12-18T07:22:21.921Z,22.55
2016-12-18T07:23:25.376Z,22.62
2016-12-18T07:24:28.829Z,22.6
2016-12-18T07:25:32.285Z,22.62
2016-12-18T07:26:35.738Z,22.65
2016-12-18T07:27:39.191Z,22.63
2016-12-18T07:28:42.645Z,22.68
2016-12-18T07:29:46.100Z,22.62
2016-12-18T07:30:49.553Z,22.59
2016-12-18T07:31:53.008Z,22.68
2016-12-18T07:32:56.461Z,22.62
2016-12-18T07:33:59.908Z,22.66
2016-12-18T07:35:03.357Z,22.63
2016-12-18T07:36:06.808Z,22.65
2016-12-18T07:37:10.255Z,22.65
2016-12-18T07:38:13.698Z,22.65
2016-12-18T07:39:17.156Z,22.66
2016-12-18T07:40:20.613Z,22.66
2016-12-18T07:41:24.058Z,22.59
2016-12-18T07:42:27.511Z,22.65
2016-12-18T07:43:30.968Z,22.63
2016-12-18T07:44:34.420Z,22.59
2016-12-18T07:45:37.872Z,22.68
2016-12-18T07:46:41.325Z,22.66
2016-12-18T07:47:44.782Z,22.69
2016-12-18T07:48:48.234Z,22.68
2016-12-18T07:49:51.691Z,22.59
2016-12-18T07:50:55.142Z,22.65
2016-12-18T07:51:58.595Z,22.59
2016-12-18T07:53:02.052Z,22.68
2016-12-18T07:54:05.504Z,22.68
2016-12-18T07:55:08.957Z,22.68
2016-12-18T07:56:12.409Z,22.62
2016-12-18T07:57:15.864Z,22.66
2016-12-18T07:58:19.318Z,22.57
2016-12-18T07:59:22.773Z,22.66
2016-12-18T08:00:26.226Z,22.55
2016-12-18T08:01:29.680Z,22.6
2016-12-18T08:02:33.140Z,22.62
2016-12-18T08:03:36.587Z,22.63
2016-12-18T08:04:40.034Z,22.65
2016-12-18T08:05:43.482Z,22.62
2016-12-18T08:06:46.927Z,22.63
2016-12-18T08:07:50.379Z,22.63
2016-12-18T08:08:53.823Z,22.59
2016-12-18T08:09:57.276Z,22.62
2016-12-18T08:11:00.730Z,22.63
2016-12-18T08:12:04.185Z,22.65
2016-12-18T08:13:07.636Z,22.59
2016-12-18T08:14:11.091Z,22.73
2016-12-18T08:15:14.546Z,22.63
2016-12-18T08:16:17.999Z,22.62
2016-12-18T08:17:21.451Z,22.6
2016-12-18T08:18:24.909Z,22.59
2016-12-18T08:19:28.361Z,22.68
2016-12-18T08:20:31.821Z,22.62
2016-12-18T08:21:35.269Z,22.6
2016-12-18T08:22:38.723Z,22.65
2016-12-18T08:23:42.177Z,22.57
2016-12-18T08:24:45.631Z,22.59
2016-12-18T08:25:49.084Z,22.63
2016-12-18T08:26:52.539Z,22.63
2016-12-18T08:27:55.992Z,22.66
2016-12-18T08:28:59.439Z,22.59
2016-12-18T08:30:02.887Z,22.62
2016-12-18T08:31:06.326Z,22.59
2016-12-18T08:32:09.783Z,22.6
2016-12-18T08:33:13.228Z,22.63
2016-12-18T08:34:16.681Z,22.65
2016-12-18T08:35:20.142Z,22.62
2016-12-18T08:36:23.590Z,22.57
2016-12-18T08:37:27.042Z,22.62
2016-12-18T08:38:30.497Z,22.63
2016-12-18T08:39:33.952Z,22.62
2016-12-18T08:40:37.405Z,22.59
2016-12-18T08:41:40.860Z,22.6
2016-12-18T08:42:44.314Z,22.55
2016-12-18T08:43:47.761Z,22.63
2016-12-18T08:44:51.210Z,22.66
2016-12-18T08:45:54.654Z,22.57
2016-12-18T08:46:58.112Z,22.63
2016-12-18T08:48:01.567Z,22.63
2016-12-18T08:49:05.008Z,22.6
2016-12-18T08:50:08.468Z,22.63
2016-12-18T08:51:11.912Z,22.65
2016-12-18T08:52:15.371Z,22.65
2016-12-18T08:53:18.830Z,22.65
2016-12-18T08:54:22.275Z,22.65
2016-12-18T08:55:25.731Z,22.6
2016-12-18T08:56:29.191Z,22.6
2016-12-18T08:57:32.639Z,22.66
2016-12-18T08:58:36.095Z,22.66
2016-12-18T08:59:39.555Z,22.68
2016-12-18T09:00:43.001Z,22.68
2016-12-18T09:01:46.457Z,22.62
2016-12-18T09:02:49.916Z,22.62
2016-12-18T09:03:53.360Z,22.65
2016-12-18T09:04:56.812Z,22.69
2016-12-18T09:06:00.268Z,22.63
2016-12-18T09:07:03.720Z,22.7
2016-12-18T09:08:07.174Z,22.62
2016-12-18T09:09:10.629Z,22.6
2016-12-18T09:10:14.082Z,22.6
2016-12-18T09:11:17.536Z,22.72
2016-12-18T09:12:20.994Z,22.72
2016-12-18T09:13:24.444Z,22.62
2016-12-18T09:14:27.889Z,22.63
2016-12-18T09:15:31.339Z,22.6
2016-12-18T09:16:34.783Z,22.59
2016-12-18T09:17:38.259Z,22.7
2016-12-18T09:18:41.681Z,22.63
2016-12-18T09:19:45.138Z,22.65
2016-12-18T09:20:48.604Z,22.62
2016-12-18T09:21:52.043Z,22.7
2016-12-18T09:22:55.499Z,22.57
2016-12-18T09:23:58.962Z,22.6
2016-12-18T09:25:02.404Z,22.59
2016-12-18T09:26:05.857Z,22.66
2016-12-18T09:27:09.313Z,22.68
2016-12-18T09:28:12.765Z,22.62
2016-12-18T09:29:16.219Z,22.66
2016-12-18T09:30:19.674Z,22.65
2016-12-18T09:31:23.128Z,22.73
2016-12-18T09:32:26.573Z,22.73
2016-12-18T09:33:30.024Z,22.63
2016-12-18T09:34:33.469Z,22.73
2016-12-18T09:35:36.925Z,22.62
2016-12-18T09:36:40.372Z,22.62
2016-12-18T09:37:43.822Z,22.65
2016-12-18T09:38:47.280Z,22.76
2016-12-18T09:39:50.725Z,22.59
2016-12-18T09:40:54.178Z,22.72
2016-12-18T09:41:57.637Z,22.65
2016-12-18T09:43:01.087Z,22.66
2016-12-18T09:44:04.541Z,22.59
2016-12-18T09:45:07.995Z,22.6
2016-12-18T09:46:11.449Z,22.6
2016-12-18T09:47:14.902Z,22.68
2016-12-18T09:48:18.357Z,22.65
2016-12-18T09:49:21.811Z,22.73
2016-12-18T09:50:25.265Z,22.62
2016-12-18T09:51:28.724Z,22.69
2016-12-18T09:52:32.173Z,22.57
2016-12-18T09:53:35.625Z,22.62
2016-12-18T09:54:39.082Z,22.65
2016-12-18T09:55:42.536Z,22.65
2016-12-18T09:56:45.989Z,22.65
2016-12-18T09:57:49.446Z,22.6
2016-12-18T09:58:52.896Z,22.69
2016-12-18T09:59:56.343Z,22.73
2016-12-18T10:00:59.792Z,22.66
2016-12-18T10:02:03.235Z,22.65
2016-12-18T10:03:06.688Z,22.68
2016-12-18T10:04:10.133Z,22.66
2016-12-18T10:05:13.592Z,22.68
2016-12-18T10:06:17.051Z,22.66
2016-12-18T10:07:20.495Z,22.65
2016-12-18T10:08:23.947Z,22.6
2016-12-18T10:09:27.405Z,22.72
2016-12-18T10:10:30.856Z,22.62
2016-12-18T10:11:34.309Z,22.66
2016-12-18T10:12:37.764Z,22.63
2016-12-18T10:13:41.217Z,22.69
2016-12-18T10:14:44.670Z,22.63
2016-12-18T10:15:48.125Z,22.62
2016-12-18T10:16:51.579Z,22.62
2016-12-18T10:17:55.034Z,22.63
2016-12-18T10:18:58.486Z,22.65
2016-12-18T10:20:01.941Z,22.68
2016-12-18T10:21:05.394Z,22.66
2016-12-18T10:22:08.849Z,22.6
2016-12-18T10:23:12.303Z,22.68
2016-12-18T10:24:15.756Z,22.68
2016-12-18T10:25:19.211Z,22.69
2016-12-18T10:26:22.664Z,22.7
2016-12-18T10:27:26.117Z,22.59
2016-12-18T10:28:29.572Z,22.68
2016-12-18T10:29:33.026Z,22.65
2016-12-18T10:30:36.478Z,22.69
2016-12-18T10:31:39.922Z,22.59
2016-12-18T10:32:43.366Z,22.66
2016-12-18T10:33:46.819Z,22.69
2016-12-18T10:34:50.262Z,22.7
2016-12-18T10:35:53.713Z,22.62
2016-12-18T10:36:57.175Z,22.7
2016-12-18T10:38:00.623Z,22.72
2016-12-18T10:39:04.076Z,22.66
2016-12-18T10:40:07.534Z,22.6
2016-12-18T10:41:10.985Z,22.72
2016-12-18T10:42:14.438Z,22.68
2016-12-18T10:43:17.895Z,22.65
2016-12-18T10:44:21.347Z,22.59
2016-12-18T10:45:24.800Z,22.7
2016-12-18T10:46:28.258Z,22.65
2016-12-18T10:47:31.709Z,22.59
2016-12-18T10:48:35.161Z,22.66
2016-12-18T10:49:38.620Z,22.6
2016-12-18T10:50:42.070Z,22.6
2016-12-18T10:51:45.517Z,22.62
2016-12-18T10:52:48.966Z,22.63
2016-12-18T10:53:52.410Z,22.63
2016-12-18T10:54:55.861Z,22.68
2016-12-18T10:55:59.305Z,22.6
2016-12-18T10:57:02.759Z,22.62
2016-12-18T10:58:06.214Z,22.6
2016-12-18T10:59:09.667Z,22.68
2016-12-18T11:00:13.120Z,22.63
2016-12-18T11:01:16.574Z,22.69
2016-12-18T11:02:20.028Z,22.68
2016-12-18T11:03:23.481Z,22.65
2016-12-18T11:04:26.936Z,22.7
2016-12-18T11:05:30.390Z,22.72
2016-12-18T11:06:33.835Z,22.69
2016-12-18T11:07:37.285Z,22.69
2016-12-18T11:08:40.728Z,22.66
2016-12-18T11:09:44.188Z,22.69
2016-12-18T11:10:47.641Z,22.68
2016-12-18T11:11:51.084Z,22.73
2016-12-18T11:12:54.542Z,22.78
2016-12-18T11:13:57.987Z,22.69
2016-12-18T11:15:01.444Z,22.69
2016-12-18T11:16:04.899Z,22.7
2016-12-18T11:17:08.348Z,22.68
2016-12-18T11:18:11.801Z,22.68
2016-12-18T11:19:15.260Z,22.68
2016-12-18T11:20:18.709Z,22.73
2016-12-18T11:21:22.161Z,22.75
2016-12-18T11:22:25.618Z,22.72
2016-12-18T11:23:29.071Z,22.78
2016-12-18T11:24:32.522Z,22.72
2016-12-18T11:25:35.967Z,22.7
2016-12-18T11:26:39.413Z,22.69
2016-12-18T11:27:42.868Z,22.7
2016-12-18T11:28:46.315Z,22.78
2016-12-18T11:29:49.765Z,22.7
2016-12-18T11:30:53.224Z,22.8
2016-12-18T11:31:56.669Z,22.8
2016-12-18T11:33:00.121Z,22.73
2016-12-18T11:34:03.581Z,22.72
2016-12-18T11:35:07.029Z,22.72
2016-12-18T11:36:10.483Z,22.73
2016-12-18T11:37:13.937Z,22.72
2016-12-18T11:38:17.391Z,22.65
2016-12-18T11:39:20.844Z,22.69
2016-12-18T11:40:24.298Z,22.72
2016-12-18T11:41:27.753Z,22.72
2016-12-18T11:42:31.206Z,22.8
2016-12-18T11:43:34.663Z,22.65
2016-12-18T11:44:38.114Z,22.73
2016-12-18T11:45:41.568Z,22.75
2016-12-18T11:46:45.022Z,22.7
2016-12-18T11:47:48.476Z,22.73
2016-12-18T11:48:51.929Z,22.75
2016-12-18T11:49:55.383Z,22.66
2016-12-18T11:50:58.838Z,22.72
2016-12-18T11:52:02.286Z,22.78
2016-12-18T11:53:05.733Z,22.78
2016-12-18T11:54:09.179Z,22.75
2016-12-18T11:55:12.632Z,22.73
2016-12-18T11:56:16.082Z,22.78
2016-12-18T11:57:19.533Z,22.66
2016-12-18T11:58:22.990Z,22.81
2016-12-18T11:59:26.436Z,22.78
2016-12-18T12:00:29.889Z,22.7
2016-12-18T12:01:33.344Z,22.81
2016-12-18T12:02:36.797Z,22.69
2016-12-18T12:03:40.250Z,22.75
2016-12-18T12:04:43.705Z,22.76
2016-12-18T12:05:47.160Z,22.7
2016-12-18T12:06:50.612Z,22.76
2016-12-18T12:07:54.067Z,22.7
2016-12-18T12:08:57.521Z,22.8
2016-12-18T12:10:00.973Z,22.78
2016-12-18T12:11:04.428Z,22.78
2016-12-18T12:12:07.882Z,22.83
2016-12-18T12:13:11.335Z,22.73
2016-12-18T12:14:14.791Z,22.7
2016-12-18T12:15:18.244Z,22.85
2016-12-18T12:16:21.697Z,22.68
2016-12-18T12:17:25.152Z,22.75
2016-12-18T12:18:28.606Z,22.73
2016-12-18T12:19:32.059Z,22.76
2016-12-18T12:20:35.517Z,22.76
2016-12-18T12:21:38.968Z,22.78
2016-12-18T12:22:42.421Z,22.83
2016-12-18T12:23:45.875Z,22.7
2016-12-18T12:24:49.330Z,22.72
2016-12-18T12:25:52.783Z,22.8
2016-12-18T12:26:56.243Z,22.68
2016-12-18T12:27:59.691Z,22.81
2016-12-18T12:29:03.145Z,22.73
2016-12-18T12:30:06.599Z,22.75
2016-12-18T12:31:10.053Z,22.75
2016-12-18T12:32:13.507Z,22.72
2016-12-18T12:33:16.966Z,22.73
2016-12-18T12:34:20.415Z,22.76
2016-12-18T12:35:23.862Z,22.83
2016-12-18T12:36:27.310Z,22.76
2016-12-18T12:37:30.755Z,22.78
2016-12-18T12:38:34.213Z,22.73
2016-12-18T12:39:37.659Z,22.76
2016-12-18T12:40:41.111Z,22.8
2016-12-18T12:41:44.567Z,22.69
2016-12-18T12:43:14.704Z,22.78
2016-12-18T12:44:18.145Z,22.75
2016-12-18T12:45:21.587Z,22.7
2016-12-18T12:46:25.041Z,22.81
2016-12-18T12:47:28.487Z,22.68
2016-12-18T12:48:31.939Z,22.69
2016-12-18T12:49:35.394Z,22.78
2016-12-18T12:50:38.848Z,22.78
2016-12-18T12:51:42.302Z,22.7
2016-12-18T12:52:45.745Z,22.8
2016-12-18T12:53:49.188Z,22.8
2016-12-18T12:54:52.646Z,22.8
2016-12-18T12:55:56.093Z,22.8
2016-12-18T12:56:59.542Z,22.76
2016-12-18T12:58:03.002Z,22.72
2016-12-18T12:59:06.446Z,22.73
2016-12-18T13:00:09.900Z,22.87
2016-12-18T13:01:13.353Z,22.83
2016-12-18T13:02:16.807Z,22.83
2016-12-18T13:03:20.261Z,22.84
2016-12-18T13:04:23.715Z,22.7
2016-12-18T13:05:27.169Z,22.85
2016-12-18T13:06:30.623Z,22.83
2016-12-18T13:07:34.077Z,22.84
2016-12-18T13:08:37.531Z,22.88
2016-12-18T13:09:40.984Z,22.87
2016-12-18T13:10:44.440Z,22.96
2016-12-18T13:11:47.893Z,22.87
2016-12-18T13:12:51.347Z,22.81
2016-12-18T13:13:54.802Z,22.81
2016-12-18T13:14:58.255Z,22.8
2016-12-18T13:16:01.710Z,22.91
2016-12-18T13:17:05.163Z,22.83
2016-12-18T13:18:08.616Z,22.91
2016-12-18T13:19:12.070Z,22.85
2016-12-18T13:20:15.523Z,22.9
2016-12-18T13:21:18.978Z,22.88
2016-12-18T13:22:22.432Z,22.88
2016-12-18T13:23:25.887Z,22.83
2016-12-18T13:24:29.339Z,22.9
2016-12-18T13:25:32.786Z,22.9
2016-12-18T13:26:36.235Z,22.81
2016-12-18T13:27:39.679Z,22.81
2016-12-18T13:28:43.148Z,22.85
2016-12-18T13:29:46.596Z,22.72
2016-12-18T13:30:50.040Z,22.88
2016-12-18T13:31:53.497Z,22.8
2016-12-18T13:32:56.937Z,22.9
2016-12-18T13:34:00.394Z,22.9
2016-12-18T13:35:03.858Z,22.9
2016-12-18T13:36:07.298Z,22.78
2016-12-18T13:37:10.757Z,22.87
2016-12-18T13:38:14.213Z,22.83
2016-12-18T13:39:17.659Z,22.78
2016-12-18T13:40:21.112Z,22.87
2016-12-18T13:41:24.567Z,22.91
2016-12-18T13:42:28.022Z,22.78